Time;durP1;ratioP1;P1;durP2;ratioP2;P2;SDS_P1;SDS_P2;PMS_P1;PMS_P2;Temp;Humidity;BMP_temperature;BMP_pressure;BME280_temperature;BME280_humidity;BME280_pressure;Samples;Min_cycle;Max_cycle;Signal;HPM_P1;HPM_P2
2022/11/24 00:00:20;;;;;;;14.02;2.25;;;9.30;99.90;;;;;;5064782;28;20051;-70
2022/11/24 00:02:45;;;;;;;14.93;2.17;;;9.30;99.90;;;;;;5062515;28;20020;-69
2022/11/24 00:05:11;;;;;;;13.00;2.30;;;9.40;99.90;;;;;;5075782;28;20116;-69
2022/11/24 00:07:36;;;;;;;13.88;2.95;;;9.40;99.90;;;;;;5076412;28;20074;-69
2022/11/24 00:10:03;;;;;;;18.05;2.67;;;9.40;99.90;;;;;;5076166;28;20081;-71
2022/11/24 00:12:28;;;;;;;6.32;1.45;;;9.40;99.90;;;;;;5075989;28;20029;-69
2022/11/24 00:14:54;;;;;;;7.43;1.80;;;9.50;99.90;;;;;;5075905;28;20032;-70
2022/11/24 00:17:19;;;;;;;9.82;2.13;;;9.50;99.90;;;;;;5062730;28;20070;-70
2022/11/24 00:19:45;;;;;;;14.48;2.90;;;9.50;99.90;;;;;;5056065;28;20056;-69
2022/11/24 00:22:10;;;;;;;10.63;2.17;;;9.50;99.90;;;;;;5055875;28;20017;-68
2022/11/24 00:24:36;;;;;;;15.15;2.13;;;9.60;99.90;;;;;;5055894;28;20492;-69
2022/11/24 00:27:02;;;;;;;9.45;1.63;;;9.60;99.90;;;;;;5055847;28;20024;-69
2022/11/24 00:29:27;;;;;;;16.88;2.58;;;9.60;99.90;;;;;;5064612;28;20046;-68
2022/11/24 00:31:55;;;;;;;28.20;2.78;;;9.60;99.90;;;;;;5075796;28;20049;-68
2022/11/24 00:34:20;;;;;;;10.88;2.28;;;9.60;99.90;;;;;;5063576;28;20049;-70
2022/11/24 00:36:46;;;;;;;11.18;2.45;;;9.50;99.90;;;;;;5070090;28;20479;-69
2022/11/24 00:39:14;;;;;;;15.60;2.50;;;9.50;99.90;;;;;;5075582;28;20024;-70
2022/11/24 00:41:41;;;;;;;14.02;3.00;;;9.40;99.90;;;;;;5072440;28;20035;-69
2022/11/24 00:44:07;;;;;;;14.38;2.95;;;9.40;99.90;;;;;;5075132;28;20534;-69
2022/11/24 00:46:32;;;;;;;14.65;2.45;;;9.40;99.90;;;;;;5073638;28;20048;-69
2022/11/24 00:49:01;;;;;;;15.75;3.28;;;9.40;99.90;;;;;;5074409;28;20066;-68
2022/11/24 00:51:29;;;;;;;16.10;2.97;;;9.40;99.90;;;;;;5074859;28;20020;-69
2022/11/24 00:53:56;;;;;;;18.17;2.90;;;9.30;99.90;;;;;;5065856;28;20032;-69
2022/11/24 00:56:22;;;;;;;23.85;3.45;;;9.30;99.90;;;;;;5069673;28;20407;-70
2022/11/24 00:58:49;;;;;;;15.57;2.50;;;9.30;99.90;;;;;;5075085;28;20052;-69
2022/11/24 01:01:17;;;;;;;15.80;2.90;;;9.30;99.90;;;;;;5075126;28;20503;-69
2022/11/24 01:03:45;;;;;;;15.57;3.05;;;9.30;99.90;;;;;;5074794;28;20048;-69
2022/11/24 01:06:12;;;;;;;12.60;2.30;;;9.20;99.90;;;;;;5074954;28;20024;-69
2022/11/24 01:08:38;;;;;;;18.52;3.28;;;9.20;99.90;;;;;;5060754;28;20461;-69
2022/11/24 01:11:11;;;;;;;25.08;4.13;;;9.20;99.90;;;;;;5057694;28;20036;-69
2022/11/24 01:13:37;;;;;;;18.73;3.55;;;9.20;99.90;;;;;;5073088;28;20036;-69
2022/11/24 01:16:03;;;;;;;10.60;2.25;;;9.20;99.90;;;;;;5074149;28;20452;-71
2022/11/24 01:18:29;;;;;;;15.20;3.25;;;9.20;99.90;;;;;;5074370;28;20023;-69
2022/11/24 01:20:54;;;;;;;20.50;3.22;;;9.20;99.90;;;;;;5074863;28;20394;-70
2022/11/24 01:23:20;;;;;;;16.33;3.08;;;9.20;99.90;;;;;;5075045;28;20069;-69
2022/11/24 01:25:45;;;;;;;18.50;2.85;;;9.10;99.90;;;;;;5058837;28;20021;-70
2022/11/24 01:28:12;;;;;;;8.25;2.00;;;9.10;99.90;;;;;;5053159;28;20373;-70
2022/11/24 01:30:38;;;;;;;13.75;2.95;;;9.10;99.90;;;;;;5072388;28;20483;-70
2022/11/24 01:33:04;;;;;;;14.73;3.33;;;9.10;99.90;;;;;;5073927;28;20036;-70
2022/11/24 01:35:29;;;;;;;9.30;2.47;;;9.10;99.90;;;;;;5069647;28;20029;-70
2022/11/24 01:37:55;;;;;;;17.08;2.90;;;9.20;99.90;;;;;;5074081;28;20016;-70
2022/11/24 01:40:20;;;;;;;17.25;2.72;;;9.20;99.90;;;;;;5073821;28;20024;-71
2022/11/24 01:42:51;;;;;;;13.25;2.35;;;9.20;99.90;;;;;;5073454;28;20023;-70
2022/11/24 01:45:39;;;;;;;17.42;2.90;;;9.20;99.90;;;;;;5074247;28;20056;-70
2022/11/24 01:48:09;;;;;;;12.18;2.90;;;9.20;99.90;;;;;;5065228;28;20032;-69
2022/11/24 01:50:35;;;;;;;16.63;2.40;;;9.20;99.90;;;;;;5071547;28;20342;-70
2022/11/24 01:53:01;;;;;;;16.17;2.10;;;9.20;99.90;;;;;;5073295;28;20086;-69
2022/11/24 01:55:33;;;;;;;16.30;2.35;;;9.20;99.90;;;;;;5072997;28;20448;-70
2022/11/24 01:58:04;;;;;;;11.45;2.30;;;9.30;99.90;;;;;;5072493;28;20094;-70
2022/11/24 02:00:31;;;;;;;13.90;2.22;;;9.30;99.90;;;;;;5069887;28;20099;-69
2022/11/24 02:02:58;;;;;;;16.02;2.25;;;9.30;99.90;;;;;;5074106;28;20052;-71
2022/11/24 02:05:42;;;;;;;13.70;3.22;;;9.40;99.90;;;;;;5066673;28;20029;-69
2022/11/24 02:08:20;;;;;;;15.02;2.10;;;9.40;99.90;;;;;;5072141;28;20457;-70
2022/11/24 02:10:47;;;;;;;15.55;2.20;;;9.40;99.90;;;;;;5073415;28;20514;-70
2022/11/24 02:13:14;;;;;;;15.98;2.53;;;9.40;99.90;;;;;;5072924;28;20022;-71
2022/11/24 02:15:40;;;;;;;7.68;1.90;;;9.40;99.90;;;;;;5057407;28;20020;-70
2022/11/24 02:18:05;;;;;;;15.30;1.98;;;9.30;99.90;;;;;;5073420;28;20117;-70
2022/11/24 02:20:31;;;;;;;16.67;2.47;;;9.30;99.90;;;;;;5073163;28;20115;-70
2022/11/24 02:23:07;;;;;;;12.10;1.90;;;9.30;99.90;;;;;;5063110;28;20062;-69
2022/11/24 02:25:38;;;;;;;16.55;2.00;;;9.30;99.90;;;;;;5067365;28;20044;-69
2022/11/24 02:28:12;;;;;;;16.95;2.55;;;9.20;99.90;;;;;;5069303;28;20330;-70
2022/11/24 02:30:38;;;;;;;12.55;2.50;;;9.20;99.90;;;;;;5073223;28;20024;-71
2022/11/24 02:33:04;;;;;;;7.53;2.17;;;9.20;99.90;;;;;;5071169;28;20076;-69
2022/11/24 02:35:30;;;;;;;10.25;1.83;;;9.10;99.90;;;;;;5072276;28;20360;-69
2022/11/24 02:37:56;;;;;;;14.63;2.30;;;9.10;99.90;;;;;;5073166;28;20096;-70
2022/11/24 02:40:25;;;;;;;11.13;2.55;;;9.10;99.90;;;;;;5073248;28;20104;-71
2022/11/24 02:42:54;;;;;;;14.75;2.50;;;9.00;99.90;;;;;;5059532;28;20024;-70
2022/11/24 02:45:20;;;;;;;13.38;2.05;;;9.00;99.90;;;;;;5070427;28;20016;-70
2022/11/24 02:47:46;;;;;;;11.98;1.92;;;9.00;99.90;;;;;;5072651;28;20017;-70
2022/11/24 02:50:12;;;;;;;5.15;1.42;;;9.00;99.90;;;;;;5070809;28;20023;-72
2022/11/24 02:52:38;;;;;;;7.43;1.52;;;8.90;99.90;;;;;;5072747;28;20021;-70
2022/11/24 02:55:04;;;;;;;16.00;2.05;;;9.00;99.90;;;;;;5068132;28;20120;-70
2022/11/24 02:57:29;;;;;;;7.90;1.90;;;9.00;99.90;;;;;;5064298;28;20063;-68
2022/11/24 02:59:55;;;;;;;8.73;1.73;;;9.00;99.90;;;;;;5072357;28;20025;-70
2022/11/24 03:02:21;;;;;;;9.00;1.83;;;8.90;99.90;;;;;;5072153;28;20021;-70
2022/11/24 03:04:47;;;;;;;9.45;1.90;;;8.90;99.90;;;;;;5069392;28;20019;-70
2022/11/24 03:07:13;;;;;;;16.60;2.50;;;8.90;99.90;;;;;;5076941;28;20364;-69
2022/11/24 03:09:39;;;;;;;9.00;1.63;;;8.90;99.90;;;;;;5073179;28;20193;-71
2022/11/24 03:12:05;;;;;;;9.13;1.73;;;8.90;99.90;;;;;;5071371;28;20444;-70
2022/11/24 03:14:30;;;;;;;7.47;1.77;;;8.90;99.90;;;;;;5069627;28;20106;-71
2022/11/24 03:16:56;;;;;;;12.05;2.05;;;8.90;99.90;;;;;;5073452;28;20318;-71
2022/11/24 03:19:21;;;;;;;6.57;1.88;;;8.90;99.90;;;;;;5071062;28;20017;-68
2022/11/24 03:21:47;;;;;;;13.88;1.88;;;8.90;99.90;;;;;;5075231;28;20021;-69
2022/11/24 03:24:13;;;;;;;8.55;1.83;;;8.90;99.90;;;;;;5068645;28;20025;-69
2022/11/24 03:26:38;;;;;;;12.35;1.85;;;9.00;99.90;;;;;;5073221;28;20077;-70
2022/11/24 03:29:04;;;;;;;7.30;1.58;;;9.00;99.90;;;;;;5067619;28;20048;-71
2022/11/24 03:31:29;;;;;;;5.30;1.50;;;8.90;99.90;;;;;;5069726;28;20476;-70
2022/11/24 03:33:55;;;;;;;11.35;1.45;;;8.90;99.90;;;;;;5067750;28;20044;-69
2022/11/24 03:36:21;;;;;;;14.98;1.70;;;8.90;99.90;;;;;;5070940;28;20047;-71
2022/11/24 03:38:46;;;;;;;7.63;1.45;;;8.90;99.90;;;;;;5076373;28;20074;-70
2022/11/24 03:41:12;;;;;;;7.15;1.30;;;8.90;99.90;;;;;;5076346;28;20016;-71
2022/11/24 03:43:38;;;;;;;8.50;1.33;;;8.90;99.90;;;;;;5062150;28;20102;-71
2022/11/24 03:46:03;;;;;;;9.90;1.20;;;8.90;99.90;;;;;;5062132;28;20028;-70
2022/11/24 03:48:29;;;;;;;6.60;2.28;;;8.90;99.90;;;;;;5065720;28;20032;-71
2022/11/24 03:50:58;;;;;;;12.57;1.50;;;8.90;99.90;;;;;;5075505;28;20040;-69
2022/11/24 03:53:26;;;;;;;9.63;1.48;;;9.00;99.90;;;;;;5070421;28;20096;-69
2022/11/24 03:55:52;;;;;;;6.25;1.50;;;9.00;99.90;;;;;;5070231;28;20067;-69
2022/11/24 03:58:18;;;;;;;10.50;1.58;;;9.10;99.90;;;;;;5073009;28;20040;-70
2022/11/24 04:00:47;;;;;;;9.38;1.17;;;9.10;99.90;;;;;;5063400;28;20415;-72
2022/11/24 04:03:12;;;;;;;10.15;1.85;;;9.20;99.90;;;;;;5069170;28;20402;-69
2022/11/24 04:05:38;;;;;;;9.43;2.10;;;9.20;99.90;;;;;;5075412;28;20045;-68
2022/11/24 04:08:04;;;;;;;18.48;1.83;;;9.30;99.90;;;;;;5076293;28;20079;-69
2022/11/24 04:10:35;;;;;;;8.05;1.52;;;9.30;99.90;;;;;;5075893;28;20129;-69
2022/11/24 04:13:02;;;;;;;11.75;1.77;;;9.40;99.90;;;;;;5075267;28;20024;-69
2022/11/24 04:15:28;;;;;;;12.45;3.17;;;9.40;99.90;;;;;;5073801;28;20033;-70
2022/11/24 04:17:54;;;;;;;13.63;2.13;;;9.40;99.90;;;;;;5071468;28;20031;-69
2022/11/24 04:20:20;;;;;;;14.45;2.00;;;9.50;99.90;;;;;;5075756;28;20031;-71
2022/11/24 04:22:45;;;;;;;13.15;1.83;;;9.50;99.90;;;;;;5075306;28;20020;-70
2022/11/24 04:25:11;;;;;;;13.95;1.75;;;9.60;99.90;;;;;;5075684;28;20020;-70
2022/11/24 04:27:37;;;;;;;17.90;3.53;;;9.60;99.90;;;;;;5075400;28;20021;-69
2022/11/24 04:30:05;;;;;;;14.75;1.90;;;9.60;99.90;;;;;;5074137;28;20027;-68
2022/11/24 04:32:30;;;;;;;17.35;2.85;;;9.60;99.90;;;;;;5075190;28;20049;-69
2022/11/24 04:34:56;;;;;;;13.80;2.22;;;9.60;99.90;;;;;;5072360;28;20116;-71
2022/11/24 04:37:22;;;;;;;10.23;1.58;;;9.60;99.90;;;;;;5072196;28;20399;-70
2022/11/24 04:39:47;;;;;;;14.93;2.30;;;9.60;99.90;;;;;;5073713;28;20063;-68
2022/11/24 04:42:13;;;;;;;11.93;1.63;;;9.60;99.90;;;;;;5075139;28;20024;-70
2022/11/24 04:44:38;;;;;;;17.77;1.70;;;9.60;99.90;;;;;;5075213;28;20027;-72
2022/11/24 04:47:05;;;;;;;13.20;3.42;;;9.50;99.90;;;;;;5074365;28;20467;-70
2022/11/24 04:49:31;;;;;;;14.13;2.13;;;9.50;99.90;;;;;;5070740;28;20107;-69
2022/11/24 04:51:57;;;;;;;11.50;1.73;;;9.50;99.90;;;;;;5075136;28;20138;-69
2022/11/24 04:54:22;;;;;;;15.35;2.13;;;9.50;99.90;;;;;;5074771;28;20052;-70
2022/11/24 04:56:52;;;;;;;15.57;2.22;;;9.50;99.90;;;;;;5061596;28;20461;-69
2022/11/24 04:59:18;;;;;;;13.10;1.67;;;9.50;99.90;;;;;;5066842;28;20024;-69
2022/11/24 05:01:45;;;;;;;11.05;1.65;;;9.40;99.90;;;;;;5075226;28;20559;-70
2022/11/24 05:04:13;;;;;;;14.48;1.63;;;9.50;99.90;;;;;;5074326;28;20456;-70
2022/11/24 05:06:39;;;;;;;13.35;2.35;;;9.50;99.90;;;;;;5074492;28;20527;-69
2022/11/24 05:09:06;;;;;;;17.30;1.70;;;9.50;99.90;;;;;;5074972;28;20099;-70
2022/11/24 05:11:32;;;;;;;11.43;1.58;;;9.50;99.90;;;;;;5057844;28;20353;-69
2022/11/24 05:13:57;;;;;;;15.55;1.50;;;9.50;99.90;;;;;;5067497;28;20028;-70
2022/11/24 05:16:23;;;;;;;11.40;1.38;;;9.50;99.90;;;;;;5064337;28;20016;-70
2022/11/24 05:18:48;;;;;;;10.52;1.35;;;9.50;99.90;;;;;;5062072;28;20025;-70
2022/11/24 05:21:14;;;;;;;13.48;1.63;;;9.50;99.90;;;;;;5071371;28;20024;-70
2022/11/24 05:23:40;;;;;;;6.90;1.17;;;9.50;99.90;;;;;;5074352;28;20042;-69
2022/11/24 05:26:06;;;;;;;10.38;1.45;;;9.50;99.90;;;;;;5067647;28;20078;-69
2022/11/24 05:28:32;;;;;;;12.73;2.13;;;9.50;99.90;;;;;;5064873;28;20013;-69
2022/11/24 05:30:59;;;;;;;6.40;1.20;;;9.40;99.90;;;;;;5060107;28;20025;-69
2022/11/24 05:33:27;;;;;;;11.25;1.30;;;9.50;99.90;;;;;;5069280;28;20047;-70
2022/11/24 05:35:53;;;;;;;17.10;1.60;;;9.50;99.90;;;;;;5073502;28;20012;-69
2022/11/24 05:38:19;;;;;;;14.85;1.55;;;9.50;99.90;;;;;;5074220;28;20013;-70
2022/11/24 05:40:45;;;;;;;8.63;1.15;;;9.50;99.90;;;;;;5072880;28;20391;-70
2022/11/24 05:43:15;;;;;;;11.32;1.35;;;9.50;99.90;;;;;;5072938;28;20035;-70
2022/11/24 05:45:42;;;;;;;11.30;1.45;;;9.60;99.90;;;;;;5058010;28;20103;-69
2022/11/24 05:48:11;;;;;;;11.52;1.85;;;9.50;99.90;;;;;;5074127;28;20353;-69
2022/11/24 05:50:37;;;;;;;8.07;1.38;;;9.50;99.90;;;;;;5063020;28;20017;-70
2022/11/24 05:53:08;;;;;;;8.45;1.33;;;9.60;99.90;;;;;;5069480;28;20360;-69
2022/11/24 05:55:35;;;;;;;9.30;1.80;;;9.60;99.90;;;;;;5072922;28;20045;-69
2022/11/24 05:58:02;;;;;;;13.93;1.77;;;9.60;99.90;;;;;;5067551;28;20017;-69
2022/11/24 06:00:29;;;;;;;10.60;1.80;;;9.60;99.90;;;;;;5064346;28;20016;-69
2022/11/24 06:02:59;;;;;;;10.27;1.83;;;9.50;99.90;;;;;;5060417;28;20029;-69
2022/11/24 06:05:26;;;;;;;12.18;1.38;;;9.50;99.90;;;;;;5072730;28;20016;-69
2022/11/24 06:07:52;;;;;;;12.65;1.30;;;9.60;99.90;;;;;;5073926;28;20050;-69
2022/11/24 06:10:19;;;;;;;13.88;2.55;;;9.60;99.90;;;;;;5073720;28;20040;-69
2022/11/24 06:12:45;;;;;;;15.55;2.72;;;9.50;99.90;;;;;;5068219;28;20032;-69
2022/11/24 06:15:11;;;;;;;13.95;2.00;;;9.50;99.90;;;;;;5061958;28;20042;-69
2022/11/24 06:17:38;;;;;;;15.55;3.33;;;9.50;99.90;;;;;;5073412;28;20025;-70
2022/11/24 06:20:05;;;;;;;13.95;1.95;;;9.50;99.90;;;;;;5070271;28;20112;-70
2022/11/24 06:22:30;;;;;;;12.75;3.45;;;9.50;99.90;;;;;;5064842;28;20476;-71
2022/11/24 06:24:56;;;;;;;6.88;1.10;;;9.40;99.90;;;;;;5069689;28;20024;-71
2022/11/24 06:27:22;;;;;;;16.08;2.45;;;9.40;99.90;;;;;;5073469;28;20021;-71
2022/11/24 06:29:47;;;;;;;12.70;1.60;;;9.30;99.90;;;;;;5073151;28;20452;-71
2022/11/24 06:32:13;;;;;;;8.90;2.10;;;9.30;99.90;;;;;;5073429;28;20045;-70
2022/11/24 06:34:40;;;;;;;2.85;1.02;;;9.30;99.90;;;;;;5065473;28;20127;-71
2022/11/24 06:37:05;;;;;;;10.15;1.83;;;9.20;99.90;;;;;;5056109;28;20056;-70
2022/11/24 06:39:31;;;;;;;12.85;1.83;;;9.20;99.90;;;;;;5060590;28;20044;-71
2022/11/24 06:41:57;;;;;;;10.13;1.73;;;9.10;99.90;;;;;;5057880;28;20103;-70
2022/11/24 06:44:23;;;;;;;8.40;1.73;;;9.10;99.90;;;;;;5055235;28;20028;-70
2022/11/24 06:46:48;;;;;;;4.95;1.35;;;9.00;99.90;;;;;;5073702;28;20028;-70
2022/11/24 06:49:14;;;;;;;8.45;1.33;;;9.00;99.90;;;;;;5073327;28;20013;-71
2022/11/24 06:51:40;;;;;;;5.65;1.77;;;8.90;99.90;;;;;;5073414;28;20455;-70
2022/11/24 06:54:07;;;;;;;7.13;1.65;;;8.90;99.90;;;;;;5072454;28;20056;-69
2022/11/24 06:56:33;;;;;;;4.00;1.55;;;8.80;99.90;;;;;;5059930;28;20064;-70
2022/11/24 06:59:00;;;;;;;12.35;2.10;;;8.80;99.90;;;;;;5053571;28;20021;-70
2022/11/24 07:01:27;;;;;;;9.65;2.08;;;8.80;99.90;;;;;;5053857;28;20059;-70
2022/11/24 07:03:54;;;;;;;8.10;2.10;;;8.80;99.90;;;;;;5052979;28;20029;-70
2022/11/24 07:06:21;;;;;;;8.60;2.75;;;8.70;99.90;;;;;;5065548;28;20082;-70
2022/11/24 07:08:47;;;;;;;8.23;2.25;;;8.70;99.90;;;;;;5073272;28;20025;-69
2022/11/24 07:11:17;;;;;;;6.90;1.75;;;8.60;99.90;;;;;;5072926;28;20360;-69
2022/11/24 07:13:43;;;;;;;10.65;2.55;;;8.60;99.90;;;;;;5072828;28;20029;-69
2022/11/24 07:16:20;;;;;;;8.38;3.47;;;8.60;99.90;;;;;;5062117;28;20021;-69
2022/11/24 07:18:47;;;;;;;10.30;3.08;;;8.50;99.90;;;;;;5056368;28;20093;-70
2022/11/24 07:21:13;;;;;;;6.47;2.13;;;8.50;99.90;;;;;;5072215;28;20504;-71
2022/11/24 07:23:39;;;;;;;9.52;2.47;;;8.50;99.90;;;;;;5072880;28;20054;-71
2022/11/24 07:26:06;;;;;;;9.93;2.88;;;8.60;99.90;;;;;;5073382;28;20029;-70
2022/11/24 07:28:33;;;;;;;13.40;3.55;;;8.60;99.90;;;;;;5072917;28;20023;-71
2022/11/24 07:31:03;;;;;;;8.93;3.20;;;8.60;99.90;;;;;;5072214;28;20092;-71
2022/11/24 07:33:28;;;;;;;6.95;2.30;;;8.70;99.90;;;;;;5064387;28;20063;-70
2022/11/24 07:35:58;;;;;;;10.02;2.55;;;8.60;99.90;;;;;;5062959;28;20020;-70
2022/11/24 07:38:24;;;;;;;4.90;2.17;;;8.60;99.90;;;;;;5052442;28;20025;-70
2022/11/24 07:40:50;;;;;;;12.15;2.78;;;8.60;99.90;;;;;;5053091;28;20082;-70
2022/11/24 07:43:15;;;;;;;10.48;2.67;;;8.60;99.90;;;;;;5052159;28;20066;-71
2022/11/24 07:45:41;;;;;;;11.10;2.28;;;8.60;99.90;;;;;;5052648;28;20028;-70
2022/11/24 07:48:06;;;;;;;5.80;1.95;;;8.70;99.90;;;;;;5052557;28;20028;-70
2022/11/24 07:50:32;;;;;;;9.57;3.00;;;8.70;99.90;;;;;;5063026;28;20029;-69
2022/11/24 07:53:02;;;;;;;10.60;2.95;;;8.70;99.90;;;;;;5061036;28;20500;-72
2022/11/24 07:55:28;;;;;;;8.73;2.60;;;8.70;99.90;;;;;;5062353;28;20032;-72
2022/11/24 07:57:57;;;;;;;7.97;2.85;;;8.70;99.90;;;;;;5076221;28;20031;-69
2022/11/24 08:00:23;;;;;;;7.18;2.58;;;8.70;99.90;;;;;;5076234;28;20100;-71
2022/11/24 08:02:48;;;;;;;7.60;2.17;;;8.70;99.90;;;;;;5074125;28;20100;-69
2022/11/24 08:05:14;;;;;;;13.68;3.03;;;8.70;99.90;;;;;;5066113;28;20029;-71
2022/11/24 08:07:39;;;;;;;9.93;2.95;;;8.70;99.90;;;;;;5065365;28;20111;-70
2022/11/24 08:10:05;;;;;;;9.40;2.78;;;8.70;99.90;;;;;;5076025;28;20021;-71
2022/11/24 08:12:31;;;;;;;12.85;3.40;;;8.80;99.90;;;;;;5055446;28;20052;-72
2022/11/24 08:14:56;;;;;;;10.80;2.97;;;8.80;99.90;;;;;;5056005;28;20467;-70
2022/11/24 08:17:22;;;;;;;9.55;3.03;;;8.90;99.90;;;;;;5074551;28;20111;-71
2022/11/24 08:19:52;;;;;;;10.25;3.15;;;8.90;99.90;;;;;;5073366;28;20509;-69
2022/11/24 08:22:17;;;;;;;12.90;3.50;;;8.90;99.90;;;;;;5075046;28;20016;-68
2022/11/24 08:24:46;;;;;;;15.68;4.50;;;8.90;99.90;;;;;;5075822;28;20025;-70
2022/11/24 08:27:13;;;;;;;11.93;3.58;;;9.00;99.90;;;;;;5062654;28;20111;-69
2022/11/24 08:29:39;;;;;;;13.70;4.30;;;9.00;99.90;;;;;;5075785;28;20029;-70
2022/11/24 08:32:04;;;;;;;15.23;4.25;;;9.00;99.90;;;;;;5075422;28;20098;-70
2022/11/24 08:34:30;;;;;;;13.38;4.70;;;9.00;99.90;;;;;;5068789;28;20034;-68
2022/11/24 08:36:55;;;;;;;14.35;3.83;;;9.00;99.90;;;;;;5074627;28;20033;-70
2022/11/24 08:39:21;;;;;;;14.07;5.63;;;9.00;99.90;;;;;;5075416;28;20016;-71
2022/11/24 08:41:47;;;;;;;14.63;4.47;;;9.00;99.90;;;;;;5074950;28;20099;-72
2022/11/24 08:44:14;;;;;;;18.63;4.95;;;9.00;99.90;;;;;;5075138;28;20035;-69
2022/11/24 08:46:40;;;;;;;17.77;4.55;;;9.10;99.90;;;;;;5075064;28;20017;-69
2022/11/24 08:49:06;;;;;;;15.13;5.35;;;9.20;99.90;;;;;;5075214;28;20020;-69
2022/11/24 08:51:32;;;;;;;15.60;5.18;;;9.30;99.90;;;;;;5069927;28;20334;-68
2022/11/24 08:53:59;;;;;;;13.35;4.40;;;9.30;99.90;;;;;;5066879;28;20131;-71
2022/11/24 08:56:27;;;;;;;16.77;4.50;;;9.40;99.90;;;;;;5073149;28;20401;-69
2022/11/24 08:58:53;;;;;;;15.55;4.03;;;9.40;99.90;;;;;;5074476;28;20063;-68
2022/11/24 09:01:19;;;;;;;16.00;4.47;;;9.50;99.90;;;;;;5065219;28;20024;-68
2022/11/24 09:03:47;;;;;;;17.15;4.40;;;9.50;99.90;;;;;;5062529;28;20028;-69
2022/11/24 09:06:13;;;;;;;19.98;5.25;;;9.60;99.90;;;;;;5077534;28;20066;-68
2022/11/24 09:08:38;;;;;;;15.13;4.97;;;9.60;99.90;;;;;;5070580;28;20485;-69
2022/11/24 09:11:07;;;;;;;12.43;4.40;;;9.70;99.90;;;;;;5074160;28;20857;-69
2022/11/24 09:13:33;;;;;;;16.35;4.28;;;9.80;99.90;;;;;;5069086;28;20030;-69
2022/11/24 09:16:03;;;;;;;19.63;4.45;;;9.90;99.90;;;;;;5074064;28;20024;-69
2022/11/24 09:18:29;;;;;;;18.02;6.07;;;10.10;99.90;;;;;;5074592;28;20047;-69
2022/11/24 09:20:57;;;;;;;13.50;4.45;;;10.30;99.90;;;;;;5068629;28;20445;-67
2022/11/24 09:23:22;;;;;;;16.13;4.32;;;10.50;99.90;;;;;;5073209;28;20345;-69
2022/11/24 09:25:48;;;;;;;17.52;3.55;;;10.60;99.90;;;;;;5074413;28;20024;-71
2022/11/24 09:28:13;;;;;;;14.60;3.95;;;10.70;99.90;;;;;;5074558;28;20035;-68
2022/11/24 09:30:39;;;;;;;13.45;4.30;;;10.80;99.90;;;;;;5073536;28;20111;-70
2022/11/24 09:33:08;;;;;;;14.13;3.78;;;10.90;99.90;;;;;;5059647;28;20049;-70
2022/11/24 09:35:36;;;;;;;15.98;4.05;;;11.00;99.90;;;;;;5060999;28;20100;-70
2022/11/24 09:38:01;;;;;;;13.35;4.25;;;11.20;99.90;;;;;;5072598;28;20077;-71
2022/11/24 09:40:27;;;;;;;10.93;4.90;;;11.50;99.90;;;;;;5073610;28;20034;-69
2022/11/24 09:43:02;;;;;;;13.95;3.88;;;11.60;99.90;;;;;;5072195;28;20402;-70
2022/11/24 09:45:36;;;;;;;15.38;3.50;;;11.70;99.90;;;;;;5066202;28;20023;-71
2022/11/24 09:48:11;;;;;;;15.32;3.67;;;11.80;99.90;;;;;;5068971;28;20397;-69
2022/11/24 09:50:37;;;;;;;12.88;3.72;;;12.20;99.90;;;;;;5073875;28;20055;-68
2022/11/24 09:53:24;;;;;;;18.70;3.63;;;12.80;99.90;;;;;;5073796;28;20042;-70
2022/11/24 09:55:54;;;;;;;10.68;2.83;;;13.30;99.90;;;;;;5058357;28;20063;-68
2022/11/24 09:58:49;;;;;;;14.50;3.05;;;13.70;99.90;;;;;;5070807;28;21690;-69
2022/11/24 10:01:29;;;;;;;13.52;3.05;;;14.00;99.90;;;;;;5073537;28;20020;-71
2022/11/24 10:03:55;;;;;;;8.68;2.25;;;14.30;99.90;;;;;;5064257;28;20033;-70
2022/11/24 10:06:39;;;;;;;13.07;2.17;;;14.40;99.90;;;;;;5072882;28;20089;-71
2022/11/24 10:09:19;;;;;;;11.77;2.28;;;14.50;99.90;;;;;;5055433;28;20043;-70
2022/11/24 10:12:19;;;;;;;12.75;2.42;;;14.80;99.90;;;;;;5068880;28;20032;-70
2022/11/24 10:15:19;;;;;;;8.73;1.65;;;15.00;99.90;;;;;;5059166;28;20037;-70
2022/11/24 10:18:09;;;;;;;13.18;2.85;;;15.20;99.90;;;;;;5069370;28;20384;-69
2022/11/24 10:20:59;;;;;;;13.38;2.17;;;15.30;99.90;;;;;;5066657;28;20088;-70
2022/11/24 10:23:58;;;;;;;10.52;2.10;;;15.30;99.90;;;;;;5058730;28;20059;-71
2022/11/24 10:26:46;;;;;;;11.13;2.83;;;15.00;99.90;;;;;;5071350;28;20078;-70
2022/11/24 10:29:12;;;;;;;9.98;2.00;;;14.50;99.90;;;;;;5072883;28;20032;-68
2022/11/24 10:31:41;;;;;;;13.38;2.20;;;14.00;99.90;;;;;;5065955;28;20049;-71
2022/11/24 10:34:21;;;;;;;13.27;2.75;;;13.50;99.90;;;;;;5057643;28;20025;-70
2022/11/24 10:36:59;;;;;;;12.90;2.25;;;13.20;99.90;;;;;;5057071;28;20021;-71
2022/11/24 10:39:59;;;;;;;15.98;2.60;;;12.90;99.90;;;;;;5066090;28;20043;-72
2022/11/24 10:42:35;;;;;;;14.65;2.63;;;12.70;99.90;;;;;;5073427;28;20062;-71
2022/11/24 10:45:16;;;;;;;11.88;2.70;;;12.60;99.90;;;;;;5073180;28;20032;-72
2022/11/24 10:47:42;;;;;;;18.40;4.25;;;12.50;99.90;;;;;;5073557;28;20059;-70
2022/11/24 10:50:23;;;;;;;10.95;2.60;;;12.50;99.90;;;;;;5055525;28;20441;-69
2022/11/24 10:53:07;;;;;;;15.43;2.40;;;12.70;99.90;;;;;;5052843;28;20338;-69
2022/11/24 10:55:55;;;;;;;11.23;2.28;;;13.40;99.90;;;;;;5053252;28;20041;-71
2022/11/24 10:58:40;;;;;;;15.52;2.67;;;13.80;99.90;;;;;;5055745;28;20042;-71
2022/11/24 11:01:14;;;;;;;11.50;2.58;;;13.90;99.90;;;;;;5073100;28;20017;-70
2022/11/24 11:03:51;;;;;;;18.27;2.97;;;14.10;99.90;;;;;;5073035;28;20055;-72
2022/11/24 11:06:29;;;;;;;20.83;2.90;;;14.50;99.90;;;;;;5073238;28;20020;-69
2022/11/24 11:09:06;;;;;;;14.27;2.47;;;14.40;99.90;;;;;;5067251;28;20036;-72
2022/11/24 11:11:34;;;;;;;20.25;3.72;;;14.20;99.90;;;;;;5073083;28;20455;-69
2022/11/24 11:14:00;;;;;;;12.90;3.17;;;13.90;99.90;;;;;;5072832;28;20041;-69
2022/11/24 11:16:54;;;;;;;16.92;3.38;;;13.90;99.90;;;;;;5073346;28;20021;-69
2022/11/24 11:19:33;;;;;;;17.88;2.90;;;14.00;99.90;;;;;;5073057;28;20027;-71
2022/11/24 11:22:18;;;;;;;17.10;2.80;;;14.40;99.90;;;;;;5073324;28;20020;-70
2022/11/24 11:24:47;;;;;;;9.82;1.85;;;15.00;99.90;;;;;;5072772;28;20111;-71
2022/11/24 11:27:22;;;;;;;5.82;1.17;;;15.40;99.90;;;;;;5075981;28;20028;-71
2022/11/24 11:29:48;;;;;;;11.07;2.80;;;15.60;99.90;;;;;;5076801;28;20017;-70
2022/11/24 11:32:25;;;;;;;13.25;2.10;;;15.80;99.90;;;;;;5076766;28;20037;-71
2022/11/24 11:34:55;;;;;;;19.08;2.90;;;15.90;99.90;;;;;;5067887;28;20075;-68
2022/11/24 11:37:26;;;;;;;13.15;2.70;;;16.10;99.90;;;;;;5070633;28;20108;-71
2022/11/24 11:39:53;;;;;;;18.42;3.33;;;16.20;99.90;;;;;;5069950;28;20024;-69
2022/11/24 11:42:25;;;;;;;7.07;2.97;;;16.40;99.90;;;;;;5076741;28;20055;-71
2022/11/24 11:45:04;;;;;;;13.93;2.78;;;16.30;99.90;;;;;;5076810;28;20024;-72
2022/11/24 11:47:46;;;;;;;17.02;2.45;;;16.30;99.90;;;;;;5076747;28;20031;-71
2022/11/24 11:50:19;;;;;;;13.00;2.30;;;16.20;99.90;;;;;;5067010;28;20061;-70
2022/11/24 11:53:08;;;;;;;17.40;2.75;;;16.40;99.90;;;;;;5064475;28;20053;-72
2022/11/24 11:55:55;;;;;;;19.73;2.92;;;16.40;99.90;;;;;;5073952;28;20040;-69
2022/11/24 11:58:41;;;;;;;17.30;2.92;;;16.70;99.90;;;;;;5076873;28;20360;-72
2022/11/24 12:01:25;;;;;;;16.27;3.10;;;16.90;99.90;;;;;;5062121;28;20114;-71
2022/11/24 12:04:21;;;;;;;16.33;2.88;;;16.90;99.90;;;;;;5059541;28;20032;-71
2022/11/24 12:07:20;;;;;;;15.63;2.85;;;16.90;99.90;;;;;;5076637;28;20020;-72
2022/11/24 12:09:48;;;;;;;16.85;3.60;;;17.00;99.90;;;;;;5064467;28;20029;-71
2022/11/24 12:12:49;;;;;;;26.60;4.85;;;16.60;99.90;;;;;;5056268;28;20036;-70
2022/11/24 12:15:36;;;;;;;16.38;2.85;;;16.30;99.90;;;;;;5055865;28;20353;-71
2022/11/24 12:18:26;;;;;;;17.38;2.92;;;16.20;99.90;;;;;;5052990;28;20016;-70
2022/11/24 12:21:17;;;;;;;19.88;2.83;;;16.00;99.90;;;;;;5074797;28;20511;-72
2022/11/24 12:23:56;;;;;;;16.50;2.70;;;15.70;99.90;;;;;;5074878;28;20524;-69
2022/11/24 12:26:28;;;;;;;20.05;3.28;;;15.50;99.90;;;;;;5056321;28;20441;-70
2022/11/24 12:29:13;;;;;;;12.57;1.88;;;15.40;99.90;;;;;;5055506;28;20028;-71
2022/11/24 12:32:00;;;;;;;13.85;2.80;;;15.10;99.90;;;;;;5047658;28;20116;-71
2022/11/24 12:34:34;;;;;;;18.00;3.05;;;15.00;99.90;;;;;;5058471;28;20461;-71
2022/11/24 12:37:14;;;;;;;22.75;3.25;;;15.20;99.90;;;;;;5070692;28;20519;-72
2022/11/24 12:39:55;;;;;;;15.82;3.33;;;15.00;99.90;;;;;;5060987;28;20024;-71
2022/11/24 12:42:29;;;;;;;15.50;3.53;;;15.00;99.90;;;;;;5059512;28;20021;-71
2022/11/24 12:44:57;;;;;;;19.60;3.65;;;15.00;99.90;;;;;;5071606;28;20036;-70
2022/11/24 12:47:26;;;;;;;19.48;2.65;;;15.20;99.90;;;;;;5075649;28;20025;-70
2022/11/24 12:49:57;;;;;;;19.02;3.67;;;15.10;99.90;;;;;;5064879;28;20033;-70
2022/11/24 12:52:30;;;;;;;15.07;2.92;;;15.20;99.90;;;;;;5069048;28;20028;-70
2022/11/24 12:54:56;;;;;;;14.85;2.85;;;15.40;99.90;;;;;;5064928;28;20479;-69
2022/11/24 12:57:43;;;;;;;13.27;3.60;;;15.30;99.90;;;;;;5075444;28;20099;-71